Saguaro Natl Park, Arizona
Current Conditions -  °F | °C
As of 2:58 AM on Saturday 01 Nov 2014 (Local Time) from KDMA Reporting Station
Clear Clear  
Wind Chill: 67°   Ceiling: Unl
Heat Index: 67°   Visibility: 10mi
Dew Point: 49°   Wind: 8mph
Humidity: 51%   Direction: 130°SE
Pressure: 29.9"   Gusts: NA
Location:  32.2°N, 110.63°W
Report Text: KDMA 010958Z AUTO 13007KT 10SM CLR 20/09 A2990 RMK AO2 SLP083 T01970092 $
Loading
Personal Weather Stations






























Interactive Weather Map
Tropical Storm Tracking
New forecast layout! Learn more

10-Day Weather Forecast

Advertisements
Track Severe Weather on mobile